Clifton, OH

6:26 PM EST on December 28, 2014 (GMT -0500)
Dayton-Wright Brothers | Change Station
CLOSE
Current Station
Airport
Location: Dayton Wright,
Elevation: 961 ft
Nearby Weather Stations

Elev 961 ft 39.59 °N, 84.22 °W | Updated 33 minutes ago

Overcast
Overcast
36 °F
Feels Like 30 °F
N
7
Wind Variable Wind from NW

Today
High -- | Low -- °F
--% Chance of Precip.
Yesterday
High -- | Low -- °F
Precip. -- in
7:55 AM 5:18 PM
First Quarter, 52% visible
Pressure 30.18 in
Visibility 10.0 miles
Clouds Overcast 2600 ft
Windchill 30 °F
Dew Point 28 °F
Humidity 73%
Rainfall 0.16 in
Snow Depth Not available.
UV 0 out of 12
Pollen .10 out of 12
Air Quality Not available.
Flu Activity Not available.
METAR KMGY 282253Z AUTO 32006KT 10SM OVC026 02/M02 A3016 RMK AO2 SLP220 T00221022 $

More Conditions Fewer Conditions

Pressure 30.18 in
Visibility 10.0 miles
Clouds Overcast 2600 ft
Windchill 30 °F
Dew Point 28 °F
Humidity 73%
Rainfall 0.16 in
Snow Depth Not available.
UV 0 out of 12
Pollen .10 out of 12
Air Quality Not available.
Flu Activity Not available.
METAR KMGY 282253Z AUTO 32006KT 10SM OVC026 02/M02 A3016 RMK AO2 SLP220 T00221022 $

More Conditions Fewer Conditions

10-Day Weather Forecast

Almanac

Astronomy

Dec. 28, 2014 Rise Set
Actual Time
Civil Twilight
Nautical Twilight
Astronomical Twilight
Moon
Length of Visible Light
Length of Day
Tomorrow will be .
, % of the Moon is Illuminated

Today's Extremes

State Highs State Lows

Community

WunderPhotos

Upload Photos

1,781,460 photos uploaded!

WunderBlogs® & News

Nearby

Air Quality

  Air Quality AQ Index Pollutant
Not available.

Snow Depth

Station Depth Elevation

Earthquake Activity

City Distance Mag. Time & Date
Minimum magnitude displayed is 2.5.

Coastal Water Temperatures

Place Temperature

Nearby Weather Stations